Time;durP1;ratioP1;P1;durP2;ratioP2;P2;SDS_P1;SDS_P2;PMS_P1;PMS_P2;Temp;Humidity;BMP_temperature;BMP_pressure;BME280_temperature;BME280_humidity;BME280_pressure;Samples;Min_cycle;Max_cycle;Signal;HPM_P1;HPM_P2
2022/12/03 00:02:28;;;;;;;20.27;12.40;;;1.90;99.90;;;;;;7374810;32;20103;-60
2022/12/03 00:06:30;;;;;;;15.15;10.55;;;1.90;99.90;;;;;;7379782;32;20161;-60
2022/12/03 00:10:35;;;;;;;18.10;12.20;;;1.90;99.90;;;;;;7376188;32;20268;-60
2022/12/03 00:14:37;;;;;;;19.25;11.70;;;1.90;99.90;;;;;;7371306;32;20229;-60
2022/12/03 00:18:45;;;;;;;17.10;11.30;;;1.90;99.90;;;;;;7372683;32;20223;-60
2022/12/03 00:22:47;;;;;;;18.67;12.02;;;1.90;99.90;;;;;;7380177;32;20529;-59
2022/12/03 00:26:48;;;;;;;18.95;11.60;;;1.90;99.90;;;;;;7379681;32;20519;-58
2022/12/03 00:30:52;;;;;;;20.75;12.13;;;1.90;99.90;;;;;;7368782;32;20230;-59
2022/12/03 00:34:54;;;;;;;19.42;11.75;;;2.00;99.90;;;;;;7364882;32;20222;-59
2022/12/03 00:38:56;;;;;;;17.77;12.23;;;1.90;99.90;;;;;;7369069;32;20137;-59
2022/12/03 00:42:58;;;;;;;17.67;11.68;;;1.90;99.90;;;;;;7374139;32;20148;-61
2022/12/03 00:47:00;;;;;;;18.42;11.20;;;2.00;99.90;;;;;;7369649;32;20111;-59
2022/12/03 00:51:01;;;;;;;20.05;12.65;;;2.00;99.90;;;;;;7373229;32;20186;-59
2022/12/03 00:55:03;;;;;;;18.70;11.95;;;2.10;99.90;;;;;;7373999;32;20489;-59
2022/12/03 00:59:05;;;;;;;19.23;12.23;;;2.00;99.90;;;;;;7381659;32;20190;-59
2022/12/03 01:03:07;;;;;;;20.58;12.07;;;2.00;99.90;;;;;;7378603;32;20146;-59
2022/12/03 01:07:08;;;;;;;18.98;11.82;;;2.00;99.90;;;;;;7384779;32;20721;-59
2022/12/03 01:11:36;;;;;;;20.73;12.65;;;1.90;99.90;;;;;;7378041;32;20145;-59
2022/12/03 01:15:32;;;;;;;18.02;11.12;;;2.00;99.90;;;;;;7376025;32;20125;-59
2022/12/03 01:19:34;;;;;;;18.42;11.95;;;2.10;99.90;;;;;;7381088;32;20507;-60
2022/12/03 01:23:36;;;;;;;18.12;11.52;;;2.00;99.90;;;;;;7377874;32;20138;-59
2022/12/03 01:27:38;;;;;;;20.08;12.55;;;2.00;99.90;;;;;;7371429;32;20503;-59
2022/12/03 01:35:59;;;;;;;20.45;13.20;;;2.00;99.90;;;;;;7381500;32;20413;-59
2022/12/03 01:40:02;;;;;;;19.65;12.45;;;2.10;99.90;;;;;;7384494;32;20111;-60
2022/12/03 01:44:32;;;;;;;21.15;12.52;;;2.00;99.90;;;;;;7383863;32;20114;-60
2022/12/03 01:48:36;;;;;;;19.70;11.23;;;2.00;99.90;;;;;;7364273;32;20137;-60
2022/12/03 01:52:38;;;;;;;18.48;11.98;;;2.10;99.90;;;;;;7384243;32;20149;-59
2022/12/03 01:56:40;;;;;;;20.02;12.18;;;2.10;99.90;;;;;;7378958;32;20267;-59
2022/12/03 02:00:42;;;;;;;19.17;12.27;;;2.10;99.90;;;;;;7381458;32;20511;-60
2022/12/03 02:04:43;;;;;;;19.62;11.68;;;2.10;99.90;;;;;;7375415;32;20494;-60
2022/12/03 02:08:46;;;;;;;19.95;13.02;;;2.10;99.90;;;;;;7381868;32;20257;-60
2022/12/03 02:12:57;;;;;;;20.02;12.27;;;2.10;99.90;;;;;;7376667;32;20214;-59
2022/12/03 02:16:59;;;;;;;18.65;11.93;;;2.10;99.90;;;;;;7369823;32;20099;-59
2022/12/03 02:21:34;;;;;;;19.20;11.98;;;2.10;99.90;;;;;;7374644;32;20129;-61
2022/12/03 02:25:37;;;;;;;19.55;12.00;;;2.10;99.90;;;;;;7376527;32;20243;-59
2022/12/03 02:29:38;;;;;;;18.50;12.02;;;2.10;99.90;;;;;;7374694;32;20181;-59
2022/12/03 02:33:40;;;;;;;19.55;12.30;;;2.10;99.90;;;;;;7378078;32;20241;-60
2022/12/03 02:37:43;;;;;;;19.60;12.02;;;2.00;99.90;;;;;;7369302;32;20264;-60
2022/12/03 02:46:07;;;;;;;20.45;12.07;;;2.10;99.90;;;;;;7376282;32;20273;-61
2022/12/03 02:50:12;;;;;;;19.67;12.55;;;2.10;99.90;;;;;;7380804;32;20216;-60
2022/12/03 02:54:13;;;;;;;19.80;12.05;;;2.10;99.90;;;;;;7378984;32;20103;-59
2022/12/03 02:58:16;;;;;;;21.58;13.15;;;2.10;99.90;;;;;;7375105;32;20700;-60
2022/12/03 03:02:18;;;;;;;20.30;12.45;;;2.10;99.90;;;;;;7381544;32;20448;-60
2022/12/03 03:06:20;;;;;;;19.20;12.45;;;2.00;99.90;;;;;;7374343;32;20141;-59
2022/12/03 03:10:22;;;;;;;21.77;13.60;;;2.00;99.90;;;;;;7372176;32;24330;-60
2022/12/03 03:14:24;;;;;;;20.65;13.25;;;2.00;99.90;;;;;;7374920;32;20095;-59
2022/12/03 03:18:26;;;;;;;21.45;13.25;;;1.90;99.90;;;;;;7371868;32;20210;-59
2022/12/03 03:22:32;;;;;;;23.67;13.73;;;2.00;99.90;;;;;;7376180;32;20103;-59
2022/12/03 03:26:34;;;;;;;22.65;13.70;;;2.00;99.90;;;;;;7371539;32;20134;-60
2022/12/03 03:30:38;;;;;;;23.45;13.55;;;1.90;99.90;;;;;;7379097;32;20542;-59
2022/12/03 03:34:39;;;;;;;24.75;14.52;;;2.00;99.90;;;;;;7380797;32;20186;-59
2022/12/03 03:38:42;;;;;;;23.67;14.00;;;2.00;99.90;;;;;;7371889;32;20478;-60
2022/12/03 03:42:44;;;;;;;24.98;14.13;;;1.90;99.90;;;;;;7375399;32;20107;-62
2022/12/03 03:46:47;;;;;;;23.10;14.00;;;1.90;99.90;;;;;;7370843;32;20571;-60
2022/12/03 03:50:50;;;;;;;21.65;13.60;;;1.90;99.90;;;;;;7375636;32;20447;-59
2022/12/03 03:54:52;;;;;;;26.20;14.23;;;2.00;99.90;;;;;;7372723;32;20518;-61
2022/12/03 03:58:55;;;;;;;24.35;13.00;;;1.80;99.90;;;;;;7375603;32;20111;-60
2022/12/03 04:02:56;;;;;;;24.52;14.63;;;1.80;99.90;;;;;;7369175;32;20198;-59
2022/12/03 04:06:58;;;;;;;22.95;13.82;;;1.80;99.90;;;;;;7377154;32;20129;-58
2022/12/03 04:15:22;;;;;;;22.67;13.27;;;1.80;99.90;;;;;;7369936;32;20574;-60
2022/12/03 04:19:23;;;;;;;25.15;13.57;;;1.80;99.90;;;;;;7368281;32;20124;-59
2022/12/03 04:23:25;;;;;;;26.77;13.95;;;1.80;99.90;;;;;;7373599;32;20107;-58
2022/12/03 04:36:12;;;;;;;29.20;14.32;;;1.90;99.90;;;;;;7376064;32;20136;-58
2022/12/03 04:44:37;;;;;;;25.70;13.95;;;1.80;99.90;;;;;;7374124;32;20174;-58
2022/12/03 04:48:39;;;;;;;25.90;13.68;;;1.80;99.90;;;;;;7375099;32;20125;-58
2022/12/03 04:52:41;;;;;;;27.75;15.25;;;1.80;99.90;;;;;;7365438;32;20103;-58
2022/12/03 04:56:42;;;;;;;27.17;14.45;;;1.80;99.90;;;;;;7369167;32;20760;-58
2022/12/03 05:00:44;;;;;;;32.95;15.30;;;1.80;99.90;;;;;;7364959;32;20127;-61
2022/12/03 05:04:46;;;;;;;31.08;14.98;;;1.70;99.90;;;;;;7367825;32;20507;-59
2022/12/03 05:08:48;;;;;;;33.47;15.50;;;1.70;99.90;;;;;;7375524;32;20482;-59
2022/12/03 05:12:49;;;;;;;27.87;14.02;;;1.80;99.90;;;;;;7370749;32;20111;-58
2022/12/03 05:16:51;;;;;;;30.48;13.95;;;1.70;99.90;;;;;;7371751;32;20095;-60
2022/12/03 05:20:53;;;;;;;28.92;14.52;;;1.70;99.90;;;;;;7362581;32;20138;-59
2022/12/03 05:24:54;;;;;;;29.98;16.15;;;1.70;99.90;;;;;;7369005;32;20192;-58
2022/12/03 05:28:57;;;;;;;27.00;14.48;;;1.70;99.90;;;;;;7376133;32;20775;-58
2022/12/03 05:32:58;;;;;;;26.80;13.55;;;1.70;99.90;;;;;;7373719;32;20520;-58
2022/12/03 05:37:00;;;;;;;29.75;14.20;;;1.70;99.90;;;;;;7374448;32;20179;-58
2022/12/03 05:42:52;;;;;;;27.83;13.40;;;1.70;99.90;;;;;;7372222;32;20107;-60
2022/12/03 05:45:26;;;;;;;31.77;14.23;;;1.60;99.90;;;;;;7374122;32;20895;-59
2022/12/03 05:49:28;;;;;;;27.87;13.43;;;1.60;99.90;;;;;;7375588;32;20107;-58
2022/12/03 05:53:29;;;;;;;31.75;14.68;;;1.60;99.90;;;;;;7383708;32;20432;-58
2022/12/03 05:57:31;;;;;;;24.95;13.15;;;1.60;99.90;;;;;;7375325;32;20115;-60
2022/12/03 06:01:33;;;;;;;29.58;14.05;;;1.60;99.90;;;;;;7376627;32;20122;-58
2022/12/03 06:05:35;;;;;;;34.25;14.10;;;1.60;99.90;;;;;;7374268;32;20126;-60
2022/12/03 06:09:36;;;;;;;30.25;13.48;;;1.70;99.90;;;;;;7377389;32;20320;-61
2022/12/03 06:13:38;;;;;;;28.55;13.13;;;1.70;99.90;;;;;;7378284;32;20316;-59
2022/12/03 06:17:40;;;;;;;30.23;14.30;;;1.70;99.90;;;;;;7371080;32;20123;-59
2022/12/03 06:21:41;;;;;;;29.45;14.85;;;1.50;99.90;;;;;;7367450;32;21035;-60
2022/12/03 06:25:43;;;;;;;35.22;16.33;;;1.50;99.90;;;;;;7371331;32;20130;-60
2022/12/03 06:29:45;;;;;;;33.95;15.27;;;1.50;99.90;;;;;;7374513;32;20125;-59
2022/12/03 06:33:46;;;;;;;30.55;14.95;;;1.40;99.90;;;;;;7368422;32;20228;-59
2022/12/03 06:37:48;;;;;;;28.67;15.00;;;1.40;99.90;;;;;;7379478;32;20108;-59
2022/12/03 06:41:50;;;;;;;32.13;14.55;;;1.30;99.90;;;;;;7382464;32;20107;-59
2022/12/03 06:45:52;;;;;;;35.92;15.63;;;1.30;99.90;;;;;;7371844;32;20102;-59
2022/12/03 06:49:53;;;;;;;32.15;14.90;;;1.30;99.90;;;;;;7381920;32;20122;-60
2022/12/03 06:53:55;;;;;;;33.05;14.75;;;1.30;99.90;;;;;;7372117;32;20115;-59
2022/12/03 06:57:57;;;;;;;32.97;14.70;;;1.30;99.90;;;;;;7375178;32;20566;-59
2022/12/03 07:01:59;;;;;;;33.55;14.82;;;1.20;99.90;;;;;;7373439;32;20144;-59
2022/12/03 07:06:01;;;;;;;33.15;15.05;;;1.20;99.90;;;;;;7376121;32;20095;-61
2022/12/03 07:10:03;;;;;;;32.78;13.93;;;1.20;99.90;;;;;;7377957;32;20186;-60
2022/12/03 07:14:06;;;;;;;31.15;14.30;;;1.30;99.90;;;;;;7367532;32;20134;-59
2022/12/03 07:18:08;;;;;;;28.15;14.50;;;1.30;99.90;;;;;;7371394;32;20118;-59
2022/12/03 07:22:10;;;;;;;31.65;15.30;;;1.30;99.90;;;;;;7370906;32;20131;-59
2022/12/03 07:26:11;;;;;;;30.05;14.90;;;1.30;99.90;;;;;;7374042;32;20107;-60
2022/12/03 07:30:14;;;;;;;27.98;13.00;;;1.30;99.90;;;;;;7378612;32;20111;-59
2022/12/03 07:34:16;;;;;;;29.10;14.55;;;1.30;99.90;;;;;;7380487;32;20106;-60
2022/12/03 07:38:17;;;;;;;28.10;13.23;;;1.30;99.90;;;;;;7375041;32;20186;-59
2022/12/03 07:42:19;;;;;;;28.77;14.10;;;1.20;99.90;;;;;;7374288;32;20095;-60
2022/12/03 07:46:21;;;;;;;31.02;13.73;;;1.20;99.90;;;;;;7372255;32;20111;-60
2022/12/03 07:50:23;;;;;;;26.40;12.93;;;1.20;99.90;;;;;;7376927;32;20969;-60
2022/12/03 07:54:25;;;;;;;24.08;12.70;;;1.30;99.90;;;;;;7370171;32;20420;-60
2022/12/03 07:58:26;;;;;;;27.92;13.80;;;1.20;99.90;;;;;;7381987;32;20099;-61
2022/12/03 08:02:28;;;;;;;27.92;13.98;;;1.20;99.90;;;;;;7364037;32;21450;-60
2022/12/03 08:06:30;;;;;;;27.87;12.93;;;1.20;99.90;;;;;;7372697;32;20191;-58
2022/12/03 08:10:31;;;;;;;29.12;13.85;;;1.30;99.90;;;;;;7368892;32;21112;-66
2022/12/03 08:14:34;;;;;;;25.50;12.63;;;1.30;99.90;;;;;;7368149;32;20207;-59
2022/12/03 08:18:36;;;;;;;31.55;15.80;;;1.30;99.90;;;;;;7367911;32;20273;-60
2022/12/03 08:22:39;;;;;;;25.35;13.23;;;1.40;99.90;;;;;;7369567;32;20894;-60
2022/12/03 08:26:43;;;;;;;32.17;14.18;;;1.40;99.90;;;;;;7368644;32;20549;-62
2022/12/03 08:30:57;;;;;;;28.52;12.60;;;1.40;99.90;;;;;;7373620;32;20462;-67
2022/12/03 08:35:00;;;;;;;29.80;15.10;;;1.50;99.90;;;;;;7373777;32;20141;-61
2022/12/03 08:39:24;;;;;;;28.77;13.80;;;1.50;99.90;;;;;;7368922;32;20135;-60
2022/12/03 08:43:28;;;;;;;25.30;13.45;;;1.50;99.90;;;;;;7375496;32;20152;-61
2022/12/03 08:47:29;;;;;;;25.48;12.77;;;1.40;99.90;;;;;;7374909;32;20099;-63
2022/12/03 08:51:31;;;;;;;29.37;13.88;;;1.40;99.90;;;;;;7372190;32;20115;-61
2022/12/03 08:55:41;;;;;;;26.80;13.02;;;1.50;99.90;;;;;;7375723;32;20127;-66
2022/12/03 08:59:43;;;;;;;29.05;15.68;;;1.50;99.90;;;;;;7366738;32;20107;-60
2022/12/03 09:03:49;;;;;;;28.52;13.18;;;1.50;99.90;;;;;;7372772;32;20921;-62
2022/12/03 09:07:51;;;;;;;25.65;12.98;;;1.60;99.90;;;;;;7371821;32;20567;-61
2022/12/03 09:11:53;;;;;;;29.27;13.00;;;1.70;99.90;;;;;;7370094;32;20114;-60
2022/12/03 09:15:55;;;;;;;25.70;14.07;;;1.90;99.90;;;;;;7371760;32;20172;-68
2022/12/03 09:19:57;;;;;;;26.40;13.15;;;2.10;99.90;;;;;;7372412;32;20103;-60
2022/12/03 09:23:58;;;;;;;25.70;13.55;;;2.10;99.90;;;;;;7376921;32;20095;-60
2022/12/03 09:28:00;;;;;;;28.27;14.73;;;2.00;99.90;;;;;;7375153;32;20479;-63
2022/12/03 09:32:02;;;;;;;28.58;13.40;;;2.00;99.90;;;;;;7376532;32;20130;-58
2022/12/03 09:36:04;;;;;;;25.90;13.48;;;2.10;99.90;;;;;;7378456;32;20137;-65
2022/12/03 09:40:07;;;;;;;26.05;14.52;;;2.00;99.90;;;;;;7377022;32;20170;-60
2022/12/03 09:44:10;;;;;;;28.12;15.50;;;2.00;99.90;;;;;;7382429;32;20110;-69
2022/12/03 09:48:20;;;;;;;25.02;14.27;;;2.10;99.90;;;;;;7379268;32;20616;-60
2022/12/03 09:52:25;;;;;;;26.70;14.70;;;2.20;99.90;;;;;;7380012;32;20106;-61
2022/12/03 09:56:28;;;;;;;26.95;14.02;;;2.00;99.90;;;;;;7380275;32;20119;-68
2022/12/03 10:00:30;;;;;;;23.77;13.68;;;2.10;99.90;;;;;;7371933;32;20246;-61
2022/12/03 10:04:31;;;;;;;27.02;13.57;;;2.10;99.90;;;;;;7380049;32;20802;-61
2022/12/03 10:08:33;;;;;;;27.60;13.40;;;2.10;99.90;;;;;;7373971;32;20190;-60
2022/12/03 10:12:35;;;;;;;26.23;14.60;;;2.10;99.90;;;;;;7371025;32;20137;-61
2022/12/03 10:16:38;;;;;;;26.12;12.93;;;2.20;99.90;;;;;;7368445;32;20201;-63
2022/12/03 10:20:40;;;;;;;23.12;12.57;;;2.20;99.90;;;;;;7376164;32;20212;-60
2022/12/03 10:24:43;;;;;;;22.75;12.93;;;2.10;99.90;;;;;;7372348;32;20108;-67
2022/12/03 10:28:46;;;;;;;22.55;13.52;;;2.30;99.90;;;;;;7367222;32;20532;-61
2022/12/03 10:32:50;;;;;;;26.30;13.43;;;2.30;99.90;;;;;;7373887;32;22126;-60
2022/12/03 10:37:18;;;;;;;29.05;15.07;;;2.40;99.90;;;;;;7379396;32;20122;-63
2022/12/03 10:41:23;;;;;;;30.40;15.02;;;2.40;99.90;;;;;;7378238;32;20167;-61
2022/12/03 10:45:25;;;;;;;26.50;15.25;;;2.30;99.90;;;;;;7375091;32;20190;-60
2022/12/03 10:49:27;;;;;;;26.12;14.15;;;2.20;99.90;;;;;;7376662;32;20111;-69
2022/12/03 10:53:32;;;;;;;27.73;14.07;;;2.40;99.90;;;;;;7377460;32;20111;-61
2022/12/03 10:57:33;;;;;;;27.98;15.05;;;2.50;99.90;;;;;;7375854;32;20122;-59
2022/12/03 11:01:35;;;;;;;29.20;15.68;;;2.70;99.90;;;;;;7374004;32;20128;-61
2022/12/03 11:05:37;;;;;;;26.20;15.10;;;2.80;99.90;;;;;;7370772;32;20278;-60
2022/12/03 11:09:43;;;;;;;26.67;14.40;;;2.80;99.90;;;;;;7373474;32;20119;-68
2022/12/03 11:13:59;;;;;;;28.63;14.73;;;2.80;99.90;;;;;;7373744;32;20107;-60
2022/12/03 11:18:01;;;;;;;27.67;15.00;;;2.90;99.90;;;;;;7359216;32;20463;-61
2022/12/03 11:22:03;;;;;;;30.85;16.90;;;2.90;99.90;;;;;;7365709;32;20214;-69
2022/12/03 11:26:05;;;;;;;29.58;15.20;;;2.80;99.90;;;;;;7370984;32;20103;-61
2022/12/03 11:30:09;;;;;;;27.33;14.60;;;2.90;99.90;;;;;;7367247;32;20185;-60
2022/12/03 11:34:19;;;;;;;30.33;16.17;;;2.80;99.90;;;;;;7369468;32;20103;-61
2022/12/03 11:38:37;;;;;;;25.48;14.38;;;2.90;99.90;;;;;;7374903;32;20103;-61
2022/12/03 11:42:39;;;;;;;30.05;15.32;;;2.90;99.90;;;;;;7376983;32;20660;-61
2022/12/03 11:46:43;;;;;;;27.92;15.65;;;2.80;99.90;;;;;;7373818;32;20103;-61
2022/12/03 11:50:52;;;;;;;29.45;16.05;;;2.90;99.90;;;;;;7372972;32;20523;-61
2022/12/03 11:55:00;;;;;;;28.65;14.57;;;2.90;99.90;;;;;;7377416;32;20597;-61
2022/12/03 11:59:11;;;;;;;28.45;15.25;;;3.00;99.90;;;;;;7379516;32;20523;-61
2022/12/03 12:03:21;;;;;;;33.20;17.27;;;2.90;99.90;;;;;;7361864;32;20257;-63
2022/12/03 12:07:33;;;;;;;32.92;15.55;;;2.90;99.90;;;;;;7363822;32;20114;-62
2022/12/03 12:11:39;;;;;;;28.70;14.95;;;2.80;99.90;;;;;;7365840;32;20256;-68
2022/12/03 12:15:42;;;;;;;31.05;15.45;;;2.90;99.90;;;;;;7366159;32;20255;-60
2022/12/03 12:19:44;;;;;;;31.90;17.20;;;2.80;99.90;;;;;;7371734;32;20103;-61
2022/12/03 12:23:54;;;;;;;30.50;15.68;;;2.90;99.90;;;;;;7373769;32;20126;-68
2022/12/03 12:27:56;;;;;;;28.52;14.87;;;2.90;99.90;;;;;;7377188;32;20127;-61
2022/12/03 12:32:13;;;;;;;27.90;15.68;;;2.80;99.90;;;;;;7370167;32;20106;-68
2022/12/03 12:36:15;;;;;;;33.60;17.12;;;2.80;99.90;;;;;;7375740;32;20114;-60
2022/12/03 12:40:18;;;;;;;29.52;15.93;;;2.60;99.90;;;;;;7376326;32;20193;-60
2022/12/03 12:44:22;;;;;;;29.50;15.43;;;2.60;99.90;;;;;;7377201;32;21291;-68
2022/12/03 12:48:29;;;;;;;32.08;15.85;;;2.60;99.90;;;;;;7376837;32;20115;-60
2022/12/03 12:52:31;;;;;;;31.77;16.23;;;2.60;99.90;;;;;;7378775;32;20582;-65
2022/12/03 12:56:33;;;;;;;30.27;15.55;;;2.50;99.90;;;;;;7377710;32;20533;-61
2022/12/03 13:00:34;;;;;;;32.33;17.02;;;2.60;99.90;;;;;;7366056;32;20098;-60
2022/12/03 13:04:39;;;;;;;26.98;15.45;;;2.60;99.90;;;;;;7375452;32;20194;-67
2022/12/03 13:08:45;;;;;;;28.12;15.23;;;2.70;99.90;;;;;;7370590;32;20121;-59
2022/12/03 13:12:47;;;;;;;28.65;15.23;;;2.60;99.90;;;;;;7368195;32;20094;-60
2022/12/03 13:16:51;;;;;;;27.27;15.23;;;2.50;99.90;;;;;;7370680;32;20150;-59
2022/12/03 13:20:54;;;;;;;31.40;16.30;;;2.50;99.90;;;;;;7370556;32;20111;-60
2022/12/03 13:24:58;;;;;;;31.73;15.65;;;2.50;99.90;;;;;;7374415;32;20212;-67
2022/12/03 13:29:05;;;;;;;31.80;16.17;;;2.60;99.90;;;;;;7366020;32;20102;-61
2022/12/03 13:33:26;;;;;;;29.85;16.58;;;2.40;99.90;;;;;;7373646;32;20168;-60
2022/12/03 13:37:28;;;;;;;29.17;17.00;;;2.50;99.90;;;;;;7370129;32;20108;-61
2022/12/03 13:45:52;;;;;;;30.15;15.60;;;2.50;99.90;;;;;;7370287;32;20119;-62
2022/12/03 13:50:02;;;;;;;30.62;16.50;;;2.50;99.90;;;;;;7368560;32;20099;-61
2022/12/03 13:54:09;;;;;;;33.53;17.20;;;2.40;99.90;;;;;;7385807;32;20111;-68
2022/12/03 13:58:16;;;;;;;29.12;16.30;;;2.40;99.90;;;;;;7378373;32;20134;-61
2022/12/03 14:02:18;;;;;;;35.28;17.25;;;2.40;99.90;;;;;;7370457;32;20133;-60
2022/12/03 14:06:20;;;;;;;32.40;16.62;;;2.40;99.90;;;;;;7377406;32;20127;-61
2022/12/03 14:10:21;;;;;;;28.45;16.27;;;2.40;99.90;;;;;;7374665;32;20099;-63
2022/12/03 14:14:23;;;;;;;31.62;16.80;;;2.40;99.90;;;;;;7382650;32;20123;-69
2022/12/03 14:18:25;;;;;;;29.00;16.35;;;2.40;99.90;;;;;;7378108;32;20141;-62
2022/12/03 14:22:27;;;;;;;33.38;17.62;;;2.40;99.90;;;;;;7375963;32;20107;-62
2022/12/03 14:26:28;;;;;;;30.60;16.75;;;2.20;99.90;;;;;;7376676;32;20785;-61
2022/12/03 14:30:30;;;;;;;33.13;17.08;;;2.20;99.90;;;;;;7377327;32;20179;-62
2022/12/03 14:34:32;;;;;;;31.33;16.17;;;2.30;99.90;;;;;;7369682;32;20125;-61
2022/12/03 14:38:33;;;;;;;35.28;17.12;;;2.30;99.90;;;;;;7374270;32;20107;-62
2022/12/03 14:42:36;;;;;;;36.15;17.80;;;2.20;99.90;;;;;;7382854;32;20125;-69
2022/12/03 14:46:37;;;;;;;33.10;16.62;;;2.10;99.90;;;;;;7376164;32;20237;-61
2022/12/03 14:50:39;;;;;;;34.85;16.87;;;2.20;99.90;;;;;;7369480;32;20228;-61
2022/12/03 14:54:41;;;;;;;34.13;17.42;;;2.10;99.90;;;;;;7372207;32;20206;-62
2022/12/03 14:58:43;;;;;;;32.08;16.95;;;2.10;99.90;;;;;;7369930;32;20123;-61
2022/12/03 15:02:45;;;;;;;31.75;16.77;;;2.10;99.90;;;;;;7368961;32;20111;-61
2022/12/03 15:06:47;;;;;;;31.48;17.20;;;2.00;99.90;;;;;;7372362;32;20111;-61
2022/12/03 15:10:48;;;;;;;37.75;17.83;;;2.00;99.90;;;;;;7371452;32;20111;-61
2022/12/03 15:14:50;;;;;;;35.72;18.60;;;1.90;99.90;;;;;;7372246;32;20744;-62
2022/12/03 15:18:52;;;;;;;32.95;16.65;;;1.90;99.90;;;;;;7377861;32;20134;-63
2022/12/03 15:22:54;;;;;;;34.97;17.50;;;1.90;99.90;;;;;;7374297;32;20107;-61
2022/12/03 15:26:55;;;;;;;36.22;17.83;;;1.90;99.90;;;;;;7382944;32;20126;-62
2022/12/03 15:30:57;;;;;;;36.35;17.20;;;1.90;99.90;;;;;;7374296;32;20179;-61
2022/12/03 15:34:59;;;;;;;34.53;18.37;;;1.90;99.90;;;;;;7370972;32;20257;-62
2022/12/03 15:39:01;;;;;;;36.35;17.37;;;1.80;99.90;;;;;;7379071;32;20597;-61
2022/12/03 15:43:03;;;;;;;35.75;17.55;;;1.90;99.90;;;;;;7373638;32;20126;-60
2022/12/03 15:47:05;;;;;;;37.17;17.62;;;1.90;99.90;;;;;;7374950;32;20179;-61
2022/12/03 15:51:07;;;;;;;39.22;18.33;;;1.90;99.90;;;;;;7373000;32;20129;-60
2022/12/03 15:55:09;;;;;;;36.03;17.90;;;1.90;99.90;;;;;;7372165;32;20217;-60
2022/12/03 15:59:11;;;;;;;35.40;17.83;;;1.80;99.90;;;;;;7370259;32;20185;-61
2022/12/03 16:03:13;;;;;;;33.40;17.00;;;1.80;99.90;;;;;;7372409;32;20154;-61
2022/12/03 16:07:15;;;;;;;37.72;18.10;;;1.80;99.90;;;;;;7372317;32;20145;-61
2022/12/03 16:11:17;;;;;;;33.88;17.10;;;1.80;99.90;;;;;;7374050;32;20533;-61
2022/12/03 16:15:18;;;;;;;37.00;17.15;;;1.90;99.90;;;;;;7368542;32;20121;-60
2022/12/03 16:19:27;;;;;;;35.17;17.90;;;1.90;99.90;;;;;;7370666;32;20198;-60
2022/12/03 16:23:29;;;;;;;32.90;17.17;;;1.80;99.90;;;;;;7372543;32;20194;-60
2022/12/03 16:27:30;;;;;;;34.42;17.23;;;1.90;99.90;;;;;;7370427;32;20118;-60
2022/12/03 16:31:32;;;;;;;33.05;17.40;;;1.80;99.90;;;;;;7379866;32;20732;-60
2022/12/03 16:35:34;;;;;;;32.33;16.30;;;1.80;99.90;;;;;;7373584;32;20529;-61
2022/12/03 16:39:35;;;;;;;33.78;16.35;;;1.70;99.90;;;;;;7369752;32;20552;-60
2022/12/03 16:43:37;;;;;;;34.38;17.15;;;1.70;99.90;;;;;;7366906;32;20249;-61
2022/12/03 16:47:39;;;;;;;31.45;17.20;;;1.80;99.90;;;;;;7368568;32;20290;-60
2022/12/03 16:51:40;;;;;;;34.13;16.67;;;1.80;99.90;;;;;;7371443;32;20107;-60
2022/12/03 16:55:42;;;;;;;33.88;17.35;;;1.70;99.90;;;;;;7375730;32;20107;-61
2022/12/03 16:59:44;;;;;;;32.38;16.70;;;1.70;99.90;;;;;;7375691;32;20111;-60
2022/12/03 17:03:45;;;;;;;33.63;16.48;;;1.70;99.90;;;;;;7362039;32;21020;-60
2022/12/03 17:07:47;;;;;;;35.42;16.62;;;1.70;99.90;;;;;;7367081;32;21351;-60
2022/12/03 17:11:49;;;;;;;33.92;16.75;;;1.80;99.90;;;;;;7373502;32;20659;-60
2022/12/03 17:15:50;;;;;;;33.13;16.87;;;1.70;99.90;;;;;;7369181;32;20102;-60
2022/12/03 17:19:52;;;;;;;31.90;17.30;;;1.70;99.90;;;;;;7369524;32;20118;-60
2022/12/03 17:23:55;;;;;;;33.50;16.92;;;1.70;99.90;;;;;;7368070;32;20099;-60
2022/12/03 17:27:56;;;;;;;37.65;17.17;;;1.70;99.90;;;;;;7375072;32;20107;-60
2022/12/03 17:31:58;;;;;;;32.20;17.33;;;1.70;99.90;;;;;;7370372;32;20568;-60
2022/12/03 17:36:00;;;;;;;33.47;16.33;;;1.70;99.90;;;;;;7375383;32;20206;-60
2022/12/03 17:40:04;;;;;;;30.83;16.60;;;1.60;99.90;;;;;;7373529;32;20133;-60
2022/12/03 17:44:05;;;;;;;34.50;17.12;;;1.60;99.90;;;;;;7376806;32;20136;-60
2022/12/03 17:48:13;;;;;;;;;;;1.60;99.90;;;;;;7370922;32;20536;-60
2022/12/03 17:52:15;;;;;;;31.00;15.25;;;1.70;99.90;;;;;;7376252;32;20026;-60
2022/12/03 17:56:16;;;;;;;31.45;16.02;;;1.60;99.90;;;;;;7378120;32;20122;-60
2022/12/03 18:00:18;;;;;;;32.17;16.98;;;1.60;99.90;;;;;;7378930;32;20123;-60
2022/12/03 18:04:20;;;;;;;32.72;16.30;;;1.60;99.90;;;;;;7376107;32;20283;-60
2022/12/03 18:08:21;;;;;;;31.92;15.77;;;1.60;99.90;;;;;;7374278;32;20819;-61
2022/12/03 18:12:23;;;;;;;28.92;14.55;;;1.60;99.90;;;;;;7370914;32;20568;-61
2022/12/03 18:16:26;;;;;;;30.55;16.25;;;1.60;99.90;;;;;;7377822;32;20157;-60
2022/12/03 18:20:28;;;;;;;28.65;14.90;;;1.60;99.90;;;;;;7374003;32;20153;-61
2022/12/03 18:24:29;;;;;;;30.55;16.30;;;1.60;99.90;;;;;;7365753;32;20252;-60
2022/12/03 18:28:31;;;;;;;31.77;16.02;;;1.60;99.90;;;;;;7379484;32;20102;-61
2022/12/03 18:32:33;;;;;;;32.53;16.55;;;1.50;99.90;;;;;;7378145;32;20210;-60
2022/12/03 18:36:35;;;;;;;27.95;15.02;;;1.50;99.90;;;;;;7375131;32;20202;-61
2022/12/03 18:40:37;;;;;;;29.42;15.27;;;1.50;99.90;;;;;;7378677;32;20963;-60
2022/12/03 18:44:39;;;;;;;29.65;15.90;;;1.50;99.90;;;;;;7378137;32;20515;-61
2022/12/03 18:48:48;;;;;;;32.10;15.35;;;1.60;99.90;;;;;;7379192;32;20107;-60
2022/12/03 18:52:49;;;;;;;30.75;15.45;;;1.60;99.90;;;;;;7371621;32;20222;-60
2022/12/03 18:56:51;;;;;;;33.10;14.95;;;1.50;99.90;;;;;;7377394;32;20103;-60
2022/12/03 19:00:53;;;;;;;28.75;16.12;;;1.60;99.90;;;;;;7380927;32;20133;-60
2022/12/03 19:04:54;;;;;;;32.15;16.02;;;1.50;99.90;;;;;;7380091;32;20115;-60
2022/12/03 19:08:56;;;;;;;31.85;16.02;;;1.60;99.90;;;;;;7370663;32;20149;-61
2022/12/03 19:12:58;;;;;;;29.17;16.27;;;1.50;99.90;;;;;;7369774;32;20157;-60
2022/12/03 19:17:00;;;;;;;28.95;15.60;;;1.50;99.90;;;;;;7377006;32;20165;-59
2022/12/03 19:21:11;;;;;;;28.42;15.43;;;1.60;99.90;;;;;;7374625;32;20724;-59
2022/12/03 19:25:13;;;;;;;28.23;15.35;;;1.60;99.90;;;;;;7376074;32;20107;-61
2022/12/03 19:29:14;;;;;;;30.37;16.60;;;1.60;99.90;;;;;;7375378;32;20145;-61
2022/12/03 19:33:16;;;;;;;29.90;16.50;;;1.50;99.90;;;;;;7376316;32;20156;-61
2022/12/03 19:37:19;;;;;;;29.45;15.15;;;1.50;99.90;;;;;;7370002;32;20103;-61
2022/12/03 19:41:21;;;;;;;29.87;15.60;;;1.50;99.90;;;;;;7372194;32;20241;-60
2022/12/03 19:45:23;;;;;;;28.98;15.27;;;1.50;99.90;;;;;;7374831;32;20253;-61
2022/12/03 19:49:25;;;;;;;29.42;16.12;;;1.50;99.90;;;;;;7367044;32;20111;-60
2022/12/03 19:53:28;;;;;;;28.65;15.52;;;1.40;99.90;;;;;;7372287;32;20100;-59
2022/12/03 19:57:30;;;;;;;31.30;16.35;;;1.50;99.90;;;;;;7375604;32;20889;-59
2022/12/03 20:01:33;;;;;;;32.30;16.10;;;1.50;99.90;;;;;;7375297;32;20104;-59
2022/12/03 20:05:39;;;;;;;31.83;16.42;;;1.50;99.90;;;;;;7370334;32;20554;-60
2022/12/03 20:09:41;;;;;;;27.27;15.32;;;1.40;99.90;;;;;;7377846;32;20179;-62
2022/12/03 20:13:43;;;;;;;29.30;15.40;;;1.40;99.90;;;;;;7372553;32;20104;-61
2022/12/03 20:17:45;;;;;;;29.02;15.15;;;1.40;99.90;;;;;;7380022;32;20110;-60
2022/12/03 20:21:47;;;;;;;27.77;15.55;;;1.40;99.90;;;;;;7375051;32;20539;-60
2022/12/03 20:25:48;;;;;;;27.25;13.90;;;1.40;99.90;;;;;;7376788;32;20546;-59
2022/12/03 20:29:50;;;;;;;33.35;15.95;;;1.40;99.90;;;;;;7368747;32;20237;-60
2022/12/03 20:33:56;;;;;;;33.28;17.08;;;1.40;99.90;;;;;;7373332;32;20178;-59
2022/12/03 20:37:57;;;;;;;30.95;15.80;;;1.40;99.90;;;;;;7380093;32;20503;-59
2022/12/03 20:41:59;;;;;;;31.30;16.27;;;1.30;99.90;;;;;;7377393;32;20522;-60
2022/12/03 20:46:11;;;;;;;32.45;16.92;;;1.30;99.90;;;;;;7376622;32;20190;-60
2022/12/03 20:50:13;;;;;;;32.58;15.43;;;1.40;99.90;;;;;;7376959;32;20099;-60
2022/12/03 20:54:15;;;;;;;35.97;18.35;;;1.30;99.90;;;;;;7366458;32;20149;-59
2022/12/03 20:58:16;;;;;;;33.35;16.55;;;1.40;99.90;;;;;;7377671;32;20107;-59
2022/12/03 21:02:18;;;;;;;30.83;17.77;;;1.40;99.90;;;;;;7371145;32;20106;-59
2022/12/03 21:06:21;;;;;;;33.08;16.55;;;1.40;99.90;;;;;;7367800;32;20129;-59
2022/12/03 21:10:34;;;;;;;33.20;17.55;;;1.30;99.90;;;;;;7377235;32;20592;-60
2022/12/03 21:14:36;;;;;;;31.67;17.10;;;1.40;99.90;;;;;;7376254;32;20152;-60
2022/12/03 21:18:38;;;;;;;35.20;18.12;;;1.40;99.90;;;;;;7382314;32;20121;-59
2022/12/03 21:22:40;;;;;;;34.90;17.58;;;1.40;99.90;;;;;;7377566;32;20134;-59